createdAt,value
2017-07-23T00:00:06.028Z,0
2017-07-23T00:01:28.206Z,0
2017-07-23T00:02:50.349Z,0
2017-07-23T00:04:12.446Z,0
2017-07-23T00:05:34.951Z,0
2017-07-23T00:06:57.223Z,0
2017-07-23T00:08:19.727Z,0
2017-07-23T00:09:41.829Z,0
2017-07-23T00:11:03.687Z,0
2017-07-23T00:12:25.375Z,0
2017-07-23T00:13:47.526Z,0
2017-07-23T00:15:09.706Z,0
2017-07-23T00:16:31.834Z,0
2017-07-23T00:17:53.676Z,0
2017-07-23T00:19:15.836Z,0
2017-07-23T00:20:37.377Z,0
2017-07-23T00:21:59.617Z,0
2017-07-23T00:23:21.772Z,0
2017-07-23T00:24:43.294Z,0
2017-07-23T00:26:05.439Z,0
2017-07-23T00:27:27.926Z,0
2017-07-23T00:28:49.746Z,0
2017-07-23T00:30:11.638Z,0
2017-07-23T00:31:33.707Z,0
2017-07-23T00:32:55.877Z,0
2017-07-23T00:34:18.037Z,0
2017-07-23T00:35:40.207Z,0
2017-07-23T00:37:03.256Z,0
2017-07-23T00:38:25.156Z,0
2017-07-23T00:39:47.067Z,0
2017-07-23T00:41:08.583Z,0
2017-07-23T00:42:30.682Z,0
2017-07-23T00:43:53.036Z,0
2017-07-23T00:45:15.523Z,0
2017-07-23T00:46:37.057Z,0
2017-07-23T00:47:59.501Z,0
2017-07-23T00:49:21.665Z,0
2017-07-23T00:50:43.856Z,0
2017-07-23T00:52:05.995Z,0
2017-07-23T00:53:27.907Z,0
2017-07-23T00:54:50.390Z,0
2017-07-23T00:56:12.557Z,0
2017-07-23T00:57:34.702Z,0
2017-07-23T00:58:56.619Z,0
2017-07-23T01:00:18.776Z,0
2017-07-23T01:01:40.289Z,0
2017-07-23T01:03:02.469Z,0
2017-07-23T01:04:24.556Z,0
2017-07-23T01:05:46.730Z,0
2017-07-23T01:07:08.886Z,0
2017-07-23T01:08:31.036Z,0
2017-07-23T01:09:53.121Z,0
2017-07-23T01:11:15.596Z,0
2017-07-23T01:12:38.062Z,0
2017-07-23T01:13:59.916Z,0
2017-07-23T01:15:22.357Z,0
2017-07-23T01:16:44.176Z,0
2017-07-23T01:18:05.702Z,0
2017-07-23T01:19:27.776Z,0
2017-07-23T01:20:50.196Z,0
2017-07-23T01:22:12.026Z,0
2017-07-23T01:23:33.537Z,0
2017-07-23T01:24:55.722Z,0
2017-07-23T01:26:17.495Z,0
2017-07-23T01:27:39.111Z,0
2017-07-23T01:29:01.678Z,0
2017-07-23T01:30:24.170Z,0
2017-07-23T01:31:45.966Z,0
2017-07-23T01:33:07.813Z,0
2017-07-23T01:34:29.637Z,0
2017-07-23T01:35:51.922Z,0
2017-07-23T01:37:14.374Z,0
2017-07-23T01:38:36.337Z,0
2017-07-23T01:39:58.536Z,0
2017-07-23T01:41:20.708Z,0
2017-07-23T01:42:42.857Z,0
2017-07-23T01:44:04.506Z,0
2017-07-23T01:45:26.326Z,0
2017-07-23T01:46:48.812Z,0
2017-07-23T01:48:10.695Z,0
2017-07-23T01:49:32.864Z,0
2017-07-23T01:50:55.064Z,0
2017-07-23T01:52:16.904Z,0
2017-07-23T01:53:39.113Z,0
2017-07-23T01:55:01.317Z,0
2017-07-23T01:56:22.877Z,0
2017-07-23T01:57:45.353Z,0
2017-07-23T01:59:08.038Z,0
2017-07-23T02:00:29.914Z,0
2017-07-23T02:01:51.746Z,0
2017-07-23T02:03:13.974Z,0
2017-07-23T02:04:36.467Z,0
2017-07-23T02:05:58.374Z,0
2017-07-23T02:07:20.236Z,0
2017-07-23T02:08:41.809Z,0
2017-07-23T02:10:04.597Z,0
2017-07-23T02:11:26.765Z,0
2017-07-23T02:12:49.237Z,0
2017-07-23T02:14:11.782Z,0
2017-07-23T02:15:34.267Z,0
2017-07-23T02:16:56.432Z,0
2017-07-23T02:18:18.627Z,0
2017-07-23T02:19:41.219Z,0
2017-07-23T02:21:03.983Z,0
2017-07-23T02:22:25.821Z,0
2017-07-23T02:23:47.668Z,0
2017-07-23T02:25:09.209Z,0
2017-07-23T02:26:31.036Z,0
2017-07-23T02:27:52.874Z,0
2017-07-23T02:29:14.497Z,0
2017-07-23T02:30:36.326Z,0
2017-07-23T02:31:58.759Z,0
2017-07-23T02:33:21.244Z,0
2017-07-23T02:34:43.416Z,0
2017-07-23T02:36:04.626Z,0
2017-07-23T02:37:27.029Z,0
2017-07-23T02:38:49.493Z,0
2017-07-23T02:40:11.024Z,0
2017-07-23T02:41:33.190Z,0
2017-07-23T02:42:55.637Z,0
2017-07-23T02:44:17.464Z,0
2017-07-23T02:45:39.636Z,0
2017-07-23T02:47:01.793Z,0
2017-07-23T02:48:24.117Z,0
2017-07-23T02:49:45.706Z,0
2017-07-23T02:51:07.551Z,0
2017-07-23T02:52:29.406Z,0
2017-07-23T02:53:51.505Z,0
2017-07-23T02:55:13.657Z,0
2017-07-23T02:56:35.820Z,0
2017-07-23T02:57:58.171Z,0
2017-07-23T02:59:20.300Z,0
2017-07-23T03:00:42.657Z,0
2017-07-23T03:02:04.815Z,0
2017-07-23T03:03:26.976Z,4
2017-07-23T03:04:49.377Z,4
2017-07-23T03:06:10.906Z,0
2017-07-23T03:07:33.045Z,4
2017-07-23T03:08:55.568Z,4
2017-07-23T03:10:18.326Z,4
2017-07-23T03:11:39.535Z,4
2017-07-23T03:13:01.376Z,4
2017-07-23T03:14:22.596Z,4
2017-07-23T03:15:45.041Z,4
2017-07-23T03:17:06.867Z,8
2017-07-23T03:18:28.703Z,4
2017-07-23T03:19:50.210Z,8
2017-07-23T03:21:11.974Z,4
2017-07-23T03:22:34.115Z,8
2017-07-23T03:23:56.266Z,12
2017-07-23T03:25:18.106Z,20
2017-07-23T03:26:40.268Z,12
2017-07-23T03:28:01.914Z,20
2017-07-23T03:29:23.774Z,20
2017-07-23T03:30:46.255Z,28
2017-07-23T03:32:08.737Z,44
2017-07-23T03:33:30.672Z,80
2017-07-23T03:34:51.868Z,92
2017-07-23T03:36:13.475Z,112
2017-07-23T03:37:35.916Z,124
2017-07-23T03:38:58.077Z,132
2017-07-23T03:40:20.008Z,152
2017-07-23T03:41:42.475Z,172
2017-07-23T03:43:04.006Z,180
2017-07-23T03:44:26.153Z,204
2017-07-23T03:45:48.024Z,204
2017-07-23T03:47:09.940Z,152
2017-07-23T03:48:32.436Z,140
2017-07-23T03:49:54.931Z,200
2017-07-23T03:51:16.832Z,240
2017-07-23T03:52:38.698Z,272
2017-07-23T03:54:00.661Z,304
2017-07-23T03:55:23.204Z,340
2017-07-23T03:56:45.366Z,364
2017-07-23T03:58:07.468Z,372
2017-07-23T03:59:29.596Z,392
2017-07-23T04:00:51.434Z,424
2017-07-23T04:02:12.962Z,464
2017-07-23T04:03:34.816Z,520
2017-07-23T04:04:57.329Z,576
2017-07-23T04:06:19.805Z,640
2017-07-23T04:07:41.982Z,684
2017-07-23T04:09:03.824Z,724
2017-07-23T04:10:26.014Z,756
2017-07-23T04:11:48.176Z,772
2017-07-23T04:13:09.752Z,792
2017-07-23T04:14:32.306Z,832
2017-07-23T04:15:54.409Z,868
2017-07-23T04:17:15.916Z,904
2017-07-23T04:18:37.118Z,888
2017-07-23T04:19:58.326Z,808
2017-07-23T04:21:21.232Z,692
2017-07-23T04:22:42.756Z,632
2017-07-23T04:24:04.916Z,536
2017-07-23T04:25:27.076Z,448
2017-07-23T04:26:49.896Z,396
2017-07-23T04:28:11.747Z,444
2017-07-23T04:29:33.895Z,580
2017-07-23T04:30:55.830Z,724
2017-07-23T04:32:17.287Z,792
2017-07-23T04:33:39.786Z,812
2017-07-23T04:35:01.672Z,972
2017-07-23T04:36:23.577Z,1144
2017-07-23T04:37:45.825Z,1240
2017-07-23T04:39:07.019Z,1252
2017-07-23T04:40:29.201Z,1296
2017-07-23T04:41:51.056Z,1328
2017-07-23T04:43:12.558Z,1344
2017-07-23T04:44:34.505Z,1388
2017-07-23T04:45:56.653Z,1532
2017-07-23T04:47:18.173Z,1756
2017-07-23T04:48:40.263Z,1956
2017-07-23T04:50:02.785Z,2084
2017-07-23T04:51:24.315Z,2220
2017-07-23T04:52:46.145Z,2368
2017-07-23T04:54:07.597Z,2200
2017-07-23T04:55:29.478Z,1932
2017-07-23T04:56:50.995Z,1864
2017-07-23T04:58:12.207Z,2288
2017-07-23T04:59:34.164Z,2680
2017-07-23T05:00:56.356Z,2912
2017-07-23T05:02:18.249Z,3144
2017-07-23T05:03:40.395Z,2832
2017-07-23T05:05:02.476Z,2556
2017-07-23T05:06:24.622Z,2524
2017-07-23T05:07:46.899Z,2444
2017-07-23T05:09:08.777Z,2500
2017-07-23T05:10:31.262Z,2148
2017-07-23T05:11:53.725Z,1828
2017-07-23T05:13:15.246Z,1644
2017-07-23T05:14:36.780Z,1708
2017-07-23T05:15:58.965Z,1504
2017-07-23T05:17:20.815Z,1608
2017-07-23T05:18:42.655Z,1832
2017-07-23T05:20:04.815Z,2184
2017-07-23T05:21:26.366Z,2940
2017-07-23T05:22:48.526Z,3388
2017-07-23T05:24:10.982Z,3476
2017-07-23T05:25:32.816Z,3328
2017-07-23T05:26:54.956Z,3036
2017-07-23T05:28:16.907Z,2456
2017-07-23T05:29:38.817Z,2632
2017-07-23T05:31:01.483Z,2744
2017-07-23T05:32:23.237Z,2112
2017-07-23T05:33:45.444Z,1680
2017-07-23T05:35:07.275Z,1912
2017-07-23T05:36:29.853Z,2448
2017-07-23T05:37:51.389Z,2912
2017-07-23T05:39:13.213Z,2808
2017-07-23T05:40:35.075Z,2216
2017-07-23T05:41:56.911Z,2176
2017-07-23T05:43:19.293Z,2832
2017-07-23T05:44:41.752Z,3276
2017-07-23T05:46:03.360Z,2932
2017-07-23T05:47:25.599Z,2556
2017-07-23T05:48:48.096Z,1980
2017-07-23T05:50:10.574Z,1432
2017-07-23T05:51:32.536Z,1164
2017-07-23T05:52:54.135Z,1072
2017-07-23T05:54:16.386Z,892
2017-07-23T05:55:38.216Z,680
2017-07-23T05:57:00.043Z,768
2017-07-23T05:58:21.942Z,900
2017-07-23T05:59:44.356Z,732
2017-07-23T06:01:06.537Z,432
2017-07-23T06:02:28.707Z,668
2017-07-23T06:03:50.534Z,1180
2017-07-23T06:05:12.621Z,1652
2017-07-23T06:06:34.525Z,1492
2017-07-23T06:07:56.682Z,1696
2017-07-23T06:09:18.223Z,1880
2017-07-23T06:10:40.320Z,2408
2017-07-23T06:12:02.512Z,2540
2017-07-23T06:13:24.026Z,2408
2017-07-23T06:14:45.849Z,1468
2017-07-23T06:16:07.764Z,900
2017-07-23T06:17:29.616Z,1108
2017-07-23T06:18:51.504Z,1036
2017-07-23T06:20:13.085Z,1840
2017-07-23T06:21:35.181Z,2312
2017-07-23T06:22:57.014Z,2312
2017-07-23T06:24:18.938Z,2476
2017-07-23T06:25:41.092Z,1676
2017-07-23T06:27:03.606Z,1312
2017-07-23T06:28:25.746Z,1500
2017-07-23T06:29:47.573Z,2120
2017-07-23T06:31:09.435Z,2924
2017-07-23T06:32:32.205Z,3008
2017-07-23T06:33:54.675Z,3508
2017-07-23T06:35:15.884Z,3584
2017-07-23T06:36:37.746Z,3988
2017-07-23T06:37:59.927Z,5352
2017-07-23T06:39:21.756Z,6620
2017-07-23T06:40:43.896Z,6204
2017-07-23T06:42:05.762Z,5356
2017-07-23T06:43:28.346Z,2484
2017-07-23T06:44:50.186Z,1908
2017-07-23T06:46:12.665Z,2424
2017-07-23T06:47:34.616Z,2792
2017-07-23T06:48:57.028Z,2968
2017-07-23T06:50:19.561Z,2756
2017-07-23T06:51:41.406Z,1600
2017-07-23T06:53:03.246Z,1308
2017-07-23T06:54:25.728Z,1188
2017-07-23T06:55:48.226Z,1316
2017-07-23T06:57:10.696Z,1600
2017-07-23T06:58:32.334Z,3676
2017-07-23T06:59:54.983Z,3836
2017-07-23T07:01:17.129Z,3500
2017-07-23T07:02:38.965Z,2240
2017-07-23T07:04:00.535Z,1984
2017-07-23T07:05:22.626Z,2084
2017-07-23T07:06:45.124Z,2516
2017-07-23T07:08:07.284Z,2616
2017-07-23T07:09:29.136Z,2756
2017-07-23T07:10:51.644Z,3044
2017-07-23T07:12:13.478Z,3936
2017-07-23T07:13:35.684Z,4700
2017-07-23T07:14:57.536Z,4020
2017-07-23T07:16:20.115Z,3296
2017-07-23T07:17:41.647Z,3072
2017-07-23T07:19:03.883Z,5452
2017-07-23T07:20:25.849Z,5668
2017-07-23T07:21:47.962Z,6264
2017-07-23T07:23:10.104Z,10668
2017-07-23T07:24:31.622Z,11848
2017-07-23T07:25:53.481Z,11256
2017-07-23T07:27:16.266Z,14128
2017-07-23T07:28:38.446Z,14020
2017-07-23T07:29:59.987Z,13812
2017-07-23T07:31:22.138Z,12824
2017-07-23T07:32:44.535Z,12084
2017-07-23T07:34:06.070Z,11848
2017-07-23T07:35:28.296Z,12160
2017-07-23T07:36:50.443Z,12980
2017-07-23T07:38:13.004Z,15076
2017-07-23T07:39:35.482Z,17120
2017-07-23T07:40:57.647Z,17792
2017-07-23T07:42:19.781Z,17952
2017-07-23T07:43:42.186Z,18752
2017-07-23T07:45:04.354Z,20736
2017-07-23T07:46:26.206Z,20096
2017-07-23T07:47:48.359Z,30656
2017-07-23T07:49:10.811Z,34016
2017-07-23T07:50:33.385Z,35552
2017-07-23T07:51:55.937Z,27552
2017-07-23T07:53:17.475Z,30496
2017-07-23T07:54:39.875Z,26048
2017-07-23T07:56:01.456Z,21376
2017-07-23T07:57:23.322Z,25952
2017-07-23T07:58:45.467Z,24032
2017-07-23T08:00:08.297Z,20288
2017-07-23T08:01:30.777Z,31456
2017-07-23T08:02:53.296Z,24672
2017-07-23T08:04:15.476Z,20384
2017-07-23T08:05:38.242Z,19296
2017-07-23T08:07:00.396Z,18272
2017-07-23T08:08:22.936Z,15632
2017-07-23T08:09:44.763Z,30592
2017-07-23T08:11:07.245Z,25600
2017-07-23T08:12:29.425Z,23264
2017-07-23T08:13:50.965Z,18912
2017-07-23T08:15:13.520Z,18592
2017-07-23T08:16:35.983Z,17984
2017-07-23T08:17:58.164Z,17184
2017-07-23T08:19:20.024Z,20768
2017-07-23T08:20:41.865Z,21024
2017-07-23T08:22:04.447Z,22624
2017-07-23T08:23:26.636Z,25440
2017-07-23T08:24:48.802Z,27648
2017-07-23T08:26:11.031Z,28192
2017-07-23T08:27:33.326Z,24032
2017-07-23T08:28:55.825Z,19520
2017-07-23T08:30:17.996Z,23264
2017-07-23T08:31:40.664Z,19936
2017-07-23T08:33:03.195Z,25984
2017-07-23T08:34:25.374Z,30240
2017-07-23T08:35:47.864Z,28256
2017-07-23T08:37:10.398Z,25792
2017-07-23T08:38:33.183Z,21184
2017-07-23T08:39:55.454Z,15804
2017-07-23T08:41:16.994Z,18944
2017-07-23T08:42:39.177Z,11176
2017-07-23T08:44:01.434Z,7200
2017-07-23T08:45:24.033Z,6604
2017-07-23T08:46:45.863Z,10168
2017-07-23T08:48:08.475Z,25760
2017-07-23T08:49:30.884Z,18880
2017-07-23T08:50:53.465Z,24768
2017-07-23T08:52:15.632Z,22880
2017-07-23T08:53:37.824Z,22976
2017-07-23T08:55:00.599Z,24992
2017-07-23T08:56:22.836Z,20032
2017-07-23T08:57:45.025Z,18816
2017-07-23T08:59:07.570Z,17248
2017-07-23T09:00:29.734Z,20864
2017-07-23T09:01:51.793Z,14924
2017-07-23T09:03:14.347Z,16608
2017-07-23T09:04:36.518Z,18560
2017-07-23T09:05:58.477Z,15844
2017-07-23T09:07:20.336Z,17012
2017-07-23T09:08:42.668Z,14888
2017-07-23T09:10:05.175Z,14744
2017-07-23T09:11:28.034Z,12632
2017-07-23T09:12:50.211Z,14776
2017-07-23T09:14:12.748Z,15724
2017-07-23T09:15:34.925Z,17176
2017-07-23T09:16:57.457Z,18720
2017-07-23T09:18:19.658Z,15588
2017-07-23T09:19:41.862Z,17152
2017-07-23T09:21:04.081Z,18624
2017-07-23T09:22:26.571Z,17216
2017-07-23T09:23:48.467Z,14716
2017-07-23T09:25:10.332Z,17728
2017-07-23T09:26:32.478Z,19872
2017-07-23T09:27:54.426Z,18816
2017-07-23T09:29:16.937Z,20000
2017-07-23T09:30:39.185Z,20192
2017-07-23T09:32:01.451Z,15876
2017-07-23T09:33:24.032Z,15052
2017-07-23T09:34:45.887Z,12728
2017-07-23T09:36:07.103Z,14588
2017-07-23T09:37:29.285Z,16384
2017-07-23T09:38:51.817Z,18400
2017-07-23T09:40:14.038Z,20768
2017-07-23T09:41:36.616Z,22240
2017-07-23T09:42:59.118Z,22368
2017-07-23T09:44:21.576Z,22560
2017-07-23T09:45:43.808Z,21536
2017-07-23T09:47:06.029Z,21888
2017-07-23T09:48:28.204Z,21056
2017-07-23T09:49:50.885Z,20224
2017-07-23T09:51:13.376Z,21024
2017-07-23T09:52:35.557Z,20128
2017-07-23T09:53:57.710Z,17984
2017-07-23T09:55:20.276Z,15964
2017-07-23T09:56:41.798Z,15644
2017-07-23T09:58:04.258Z,14428
2017-07-23T09:59:26.942Z,14256
2017-07-23T10:00:49.750Z,14100
2017-07-23T10:02:12.225Z,15392
2017-07-23T10:03:34.424Z,17824
2017-07-23T10:04:56.606Z,21728
2017-07-23T10:06:19.127Z,22912
2017-07-23T10:07:41.618Z,20288
2017-07-23T10:09:04.228Z,18144
2017-07-23T10:10:26.458Z,15460
2017-07-23T10:11:48.962Z,13408
2017-07-23T10:13:11.454Z,11836
2017-07-23T10:14:34.064Z,12384
2017-07-23T10:15:55.612Z,13624
2017-07-23T10:17:18.067Z,14592
2017-07-23T10:18:40.294Z,17760
2017-07-23T10:20:02.586Z,17824
2017-07-23T10:21:24.798Z,16544
2017-07-23T10:22:47.531Z,16512
2017-07-23T10:24:09.718Z,18368
2017-07-23T10:25:32.226Z,19456
2017-07-23T10:26:54.078Z,19744
2017-07-23T10:28:16.516Z,20928
2017-07-23T10:29:37.851Z,20928
2017-07-23T10:31:00.318Z,19264
2017-07-23T10:32:22.506Z,18048
2017-07-23T10:33:44.386Z,20448
2017-07-23T10:35:06.227Z,24512
2017-07-23T10:36:27.786Z,26912
2017-07-23T10:37:50.288Z,25056
2017-07-23T10:39:12.927Z,20896
2017-07-23T10:40:35.437Z,18880
2017-07-23T10:41:57.709Z,18336
2017-07-23T10:43:19.926Z,16008
2017-07-23T10:44:42.039Z,13208
2017-07-23T10:46:04.517Z,9796
2017-07-23T10:47:27.034Z,8492
2017-07-23T10:48:49.326Z,11088
2017-07-23T10:50:11.825Z,15724
2017-07-23T10:51:34.334Z,19648
2017-07-23T10:52:55.889Z,20800
2017-07-23T10:54:18.379Z,20032
2017-07-23T10:55:40.919Z,20032
2017-07-23T10:57:03.168Z,20768
2017-07-23T10:58:25.358Z,22272
2017-07-23T10:59:46.915Z,24192
2017-07-23T11:01:09.808Z,23648
2017-07-23T11:02:32.491Z,21024
2017-07-23T11:03:54.077Z,19936
2017-07-23T11:05:16.750Z,20736
2017-07-23T11:06:39.579Z,21568
2017-07-23T11:08:01.773Z,22144
2017-07-23T11:09:24.294Z,22080
2017-07-23T11:10:46.854Z,21760
2017-07-23T11:12:10.163Z,21056
2017-07-23T11:13:32.734Z,20000
2017-07-23T11:14:54.978Z,17312
2017-07-23T11:16:17.634Z,16324
2017-07-23T11:17:39.748Z,15904
2017-07-23T11:19:02.337Z,14904
2017-07-23T11:20:24.817Z,14280
2017-07-23T11:21:46.689Z,14432
2017-07-23T11:23:09.350Z,11884
2017-07-23T11:24:31.320Z,13948
2017-07-23T11:25:53.887Z,13260
2017-07-23T11:27:15.735Z,14992
2017-07-23T11:28:38.314Z,14780
2017-07-23T11:30:00.513Z,15456
2017-07-23T11:31:22.852Z,15576
2017-07-23T11:32:45.396Z,17824
2017-07-23T11:34:08.189Z,15756
2017-07-23T11:35:30.085Z,18816
2017-07-23T11:36:52.598Z,17696
2017-07-23T11:38:14.762Z,20416
2017-07-23T11:39:37.610Z,17888
2017-07-23T11:40:59.582Z,14552
2017-07-23T11:42:22.099Z,14428
2017-07-23T11:43:44.289Z,14280
2017-07-23T11:45:06.548Z,15356
2017-07-23T11:46:29.057Z,14760
2017-07-23T11:47:50.686Z,15412
2017-07-23T11:49:12.656Z,15180
2017-07-23T11:50:35.384Z,11860
2017-07-23T11:51:57.609Z,10820
2017-07-23T11:53:20.116Z,9700
2017-07-23T11:54:42.398Z,9240
2017-07-23T11:56:04.855Z,11676
2017-07-23T11:57:27.109Z,13656
2017-07-23T11:58:49.298Z,13784
2017-07-23T12:00:11.155Z,13612
2017-07-23T12:01:33.712Z,16096
2017-07-23T12:02:55.245Z,18752
2017-07-23T12:04:17.414Z,19008
2017-07-23T12:05:39.659Z,17952
2017-07-23T12:07:02.427Z,14596
2017-07-23T12:08:24.623Z,11420
2017-07-23T12:09:46.546Z,10200
2017-07-23T12:11:08.407Z,10084
2017-07-23T12:12:30.877Z,11328
2017-07-23T12:13:52.835Z,12684
2017-07-23T12:15:14.710Z,15316
2017-07-23T12:16:36.292Z,14500
2017-07-23T12:17:58.806Z,13228
2017-07-23T12:19:20.682Z,13492
2017-07-23T12:20:42.878Z,14108
2017-07-23T12:22:05.403Z,14136
2017-07-23T12:23:26.867Z,11880
2017-07-23T12:24:49.573Z,10684
2017-07-23T12:26:12.087Z,10496
2017-07-23T12:27:34.266Z,11024
2017-07-23T12:28:56.477Z,11700
2017-07-23T12:30:18.670Z,11796
2017-07-23T12:31:40.849Z,10704
2017-07-23T12:33:03.090Z,9088
2017-07-23T12:34:25.575Z,7924
2017-07-23T12:35:47.470Z,7352
2017-07-23T12:37:10.714Z,6968
2017-07-23T12:38:32.850Z,6740
2017-07-23T12:39:55.287Z,6500
2017-07-23T12:41:17.486Z,6444
2017-07-23T12:42:39.774Z,5532
2017-07-23T12:44:02.069Z,6428
2017-07-23T12:45:24.894Z,8840
2017-07-23T12:46:47.468Z,7280
2017-07-23T12:48:09.946Z,7220
2017-07-23T12:49:32.548Z,9052
2017-07-23T12:50:54.357Z,10900
2017-07-23T12:52:15.909Z,10196
2017-07-23T12:53:38.157Z,7984
2017-07-23T12:55:00.700Z,10292
2017-07-23T12:56:22.896Z,13100
2017-07-23T12:57:44.636Z,12892
2017-07-23T12:59:06.490Z,9940
2017-07-23T13:00:28.678Z,9136
2017-07-23T13:01:51.526Z,8396
2017-07-23T13:03:13.694Z,8696
2017-07-23T13:04:36.172Z,8328
2017-07-23T13:05:58.667Z,8340
2017-07-23T13:07:20.781Z,8472
2017-07-23T13:08:42.960Z,10184
2017-07-23T13:10:05.130Z,11472
2017-07-23T13:11:27.618Z,11712
2017-07-23T13:12:50.161Z,11320
2017-07-23T13:14:12.028Z,13700
2017-07-23T13:15:34.275Z,14444
2017-07-23T13:16:56.435Z,13972
2017-07-23T13:18:18.524Z,12364
2017-07-23T13:19:41.086Z,12236
2017-07-23T13:21:03.566Z,14396
2017-07-23T13:22:25.599Z,13716
2017-07-23T13:23:48.043Z,11932
2017-07-23T13:25:10.376Z,11996
2017-07-23T13:26:32.216Z,13044
2017-07-23T13:27:54.698Z,13236
2017-07-23T13:29:16.960Z,12712
2017-07-23T13:30:38.912Z,13180
2017-07-23T13:32:00.601Z,12372
2017-07-23T13:33:23.134Z,11268
2017-07-23T13:34:45.875Z,10124
2017-07-23T13:36:08.046Z,8972
2017-07-23T13:37:30.341Z,10132
2017-07-23T13:38:52.870Z,11496
2017-07-23T13:40:15.092Z,14140
2017-07-23T13:41:37.253Z,19264
2017-07-23T13:42:59.109Z,19488
2017-07-23T13:44:21.053Z,17120
2017-07-23T13:45:43.216Z,15148
2017-07-23T13:47:05.377Z,14500
2017-07-23T13:48:27.955Z,13816
2017-07-23T13:49:49.817Z,13592
2017-07-23T13:51:11.583Z,15012
2017-07-23T13:52:33.467Z,17024
2017-07-23T13:53:55.326Z,18688
2017-07-23T13:55:17.525Z,19936
2017-07-23T13:56:39.361Z,20416
2017-07-23T13:58:01.026Z,20064
2017-07-23T13:59:23.515Z,18816
2017-07-23T14:00:45.427Z,17824
2017-07-23T14:02:07.977Z,15800
2017-07-23T14:03:30.508Z,14792
2017-07-23T14:04:52.114Z,13692
2017-07-23T14:06:14.282Z,13340
2017-07-23T14:07:36.454Z,13820
2017-07-23T14:08:58.355Z,14712
2017-07-23T14:10:20.196Z,15448
2017-07-23T14:11:42.365Z,16352
2017-07-23T14:13:04.227Z,16120
2017-07-23T14:14:26.086Z,15900
2017-07-23T14:15:48.634Z,14880
2017-07-23T14:17:10.479Z,14468
2017-07-23T14:18:32.335Z,13484
2017-07-23T14:19:54.625Z,13548
2017-07-23T14:21:17.103Z,13312
2017-07-23T14:22:38.952Z,15372
2017-07-23T14:24:01.750Z,16928
2017-07-23T14:25:23.916Z,18208
2017-07-23T14:26:45.156Z,19072
2017-07-23T14:28:07.337Z,19072
2017-07-23T14:29:29.903Z,18720
2017-07-23T14:30:51.764Z,16992
2017-07-23T14:32:13.646Z,15080
2017-07-23T14:33:36.141Z,14748
2017-07-23T14:34:58.646Z,15632
2017-07-23T14:36:21.136Z,14876
2017-07-23T14:37:43.667Z,14636
2017-07-23T14:39:05.844Z,15012
2017-07-23T14:40:28.794Z,15504
2017-07-23T14:41:50.652Z,14520
2017-07-23T14:43:12.895Z,13844
2017-07-23T14:44:34.774Z,11504
2017-07-23T14:45:56.582Z,8984
2017-07-23T14:47:18.153Z,8360
2017-07-23T14:48:39.995Z,8276
2017-07-23T14:50:02.548Z,9220
2017-07-23T14:51:24.715Z,9812
2017-07-23T14:52:46.689Z,9356
2017-07-23T14:54:08.907Z,8416
2017-07-23T14:55:30.451Z,8096
2017-07-23T14:56:52.595Z,7452
2017-07-23T14:58:14.126Z,6940
2017-07-23T14:59:36.312Z,6752
2017-07-23T15:00:58.826Z,6764
2017-07-23T15:02:20.941Z,6640
2017-07-23T15:03:43.145Z,6560
2017-07-23T15:05:05.699Z,6428
2017-07-23T15:06:28.178Z,6200
2017-07-23T15:07:50.640Z,6008
2017-07-23T15:09:12.184Z,5932
2017-07-23T15:10:34.365Z,5892
2017-07-23T15:11:56.550Z,5864
2017-07-23T15:13:19.114Z,5824
2017-07-23T15:14:41.426Z,5820
2017-07-23T15:16:03.915Z,5992
2017-07-23T15:17:25.842Z,6564
2017-07-23T15:18:48.348Z,6484
2017-07-23T15:20:10.284Z,6780
2017-07-23T15:21:31.614Z,6152
2017-07-23T15:22:53.147Z,6080
2017-07-23T15:24:15.701Z,6192
2017-07-23T15:25:37.990Z,6108
2017-07-23T15:26:59.845Z,5964
2017-07-23T15:28:22.324Z,6048
2017-07-23T15:29:44.546Z,7832
2017-07-23T15:31:06.413Z,9444
2017-07-23T15:32:28.924Z,9604
2017-07-23T15:33:51.144Z,9984
2017-07-23T15:35:13.067Z,12056
2017-07-23T15:36:34.610Z,12024
2017-07-23T15:37:57.102Z,12624
2017-07-23T15:39:18.643Z,13308
2017-07-23T15:40:41.424Z,12468
2017-07-23T15:42:03.945Z,11504
2017-07-23T15:43:26.194Z,11288
2017-07-23T15:44:48.709Z,11608
2017-07-23T15:46:11.005Z,11752
2017-07-23T15:47:32.867Z,10536
2017-07-23T15:48:55.375Z,9204
2017-07-23T15:50:17.377Z,9592
2017-07-23T15:51:39.461Z,10256
2017-07-23T15:53:01.363Z,10268
2017-07-23T15:54:24.007Z,9876
2017-07-23T15:55:46.295Z,9204
2017-07-23T15:57:08.170Z,8416
2017-07-23T15:58:30.073Z,8560
2017-07-23T15:59:52.270Z,8800
2017-07-23T16:01:14.843Z,9184
2017-07-23T16:02:36.964Z,10008
2017-07-23T16:03:59.123Z,10120
2017-07-23T16:05:21.357Z,9508
2017-07-23T16:06:43.244Z,10404
2017-07-23T16:08:05.712Z,11980
2017-07-23T16:09:27.572Z,12428
2017-07-23T16:10:49.409Z,12360
2017-07-23T16:12:10.932Z,11996
2017-07-23T16:13:33.392Z,11760
2017-07-23T16:14:55.250Z,11444
2017-07-23T16:16:17.114Z,11084
2017-07-23T16:17:39.033Z,11100
2017-07-23T16:19:00.962Z,10724
2017-07-23T16:20:23.198Z,9720
2017-07-23T16:21:45.696Z,8984
2017-07-23T16:23:07.947Z,7992
2017-07-23T16:24:30.706Z,7652
2017-07-23T16:25:52.906Z,8096
2017-07-23T16:27:14.817Z,8284
2017-07-23T16:28:37.354Z,8444
2017-07-23T16:30:00.010Z,8580
2017-07-23T16:31:21.561Z,8392
2017-07-23T16:32:44.104Z,8220
2017-07-23T16:34:06.316Z,7784
2017-07-23T16:35:28.874Z,7436
2017-07-23T16:36:50.772Z,7512
2017-07-23T16:38:13.097Z,7652
2017-07-23T16:39:35.612Z,7568
2017-07-23T16:40:57.491Z,8092
2017-07-23T16:42:19.708Z,8416
2017-07-23T16:43:41.902Z,8448
2017-07-23T16:45:04.388Z,8148
2017-07-23T16:46:26.825Z,7664
2017-07-23T16:47:49.445Z,7592
2017-07-23T16:49:11.933Z,8084
2017-07-23T16:50:33.805Z,8384
2017-07-23T16:51:56.594Z,8432
2017-07-23T16:53:19.277Z,8424
2017-07-23T16:54:41.784Z,8260
2017-07-23T16:56:04.383Z,8168
2017-07-23T16:57:26.844Z,7892
2017-07-23T16:58:49.394Z,7740
2017-07-23T17:00:11.556Z,7484
2017-07-23T17:01:34.055Z,7388
2017-07-23T17:02:56.486Z,7212
2017-07-23T17:04:18.977Z,7208
2017-07-23T17:05:41.474Z,6944
2017-07-23T17:07:03.981Z,6336
2017-07-23T17:08:26.405Z,5492
2017-07-23T17:09:48.926Z,4668
2017-07-23T17:11:11.117Z,3900
2017-07-23T17:12:33.329Z,3268
2017-07-23T17:13:56.164Z,2868
2017-07-23T17:15:18.026Z,2732
2017-07-23T17:16:39.881Z,2672
2017-07-23T17:18:01.753Z,2548
2017-07-23T17:19:24.485Z,2520
2017-07-23T17:20:46.995Z,2680
2017-07-23T17:22:09.487Z,2796
2017-07-23T17:23:31.828Z,2912
2017-07-23T17:24:54.568Z,3152
2017-07-23T17:26:17.072Z,3468
2017-07-23T17:27:39.656Z,3720
2017-07-23T17:29:01.510Z,4188
2017-07-23T17:30:24.126Z,4788
2017-07-23T17:31:46.308Z,5348
2017-07-23T17:33:08.509Z,5820
2017-07-23T17:34:30.856Z,6040
2017-07-23T17:35:53.684Z,5876
2017-07-23T17:37:15.864Z,5944
2017-07-23T17:38:38.067Z,6000
2017-07-23T17:40:00.635Z,5912
2017-07-23T17:41:23.229Z,5776
2017-07-23T17:42:45.740Z,5672
2017-07-23T17:44:08.002Z,5600
2017-07-23T17:45:29.906Z,5600
2017-07-23T17:46:52.672Z,5692
2017-07-23T17:48:14.882Z,5796
2017-07-23T17:49:37.088Z,5792
2017-07-23T17:50:59.633Z,5740
2017-07-23T17:52:22.078Z,5572
2017-07-23T17:53:44.317Z,5516
2017-07-23T17:55:06.488Z,5332
2017-07-23T17:56:29.076Z,5364
2017-07-23T17:57:51.255Z,5380
2017-07-23T17:59:13.518Z,5476
2017-07-23T18:00:36.022Z,5484
2017-07-23T18:01:58.203Z,5316
2017-07-23T18:03:20.677Z,5092
2017-07-23T18:04:43.326Z,4828
2017-07-23T18:06:05.565Z,4508
2017-07-23T18:07:28.235Z,4240
2017-07-23T18:08:50.988Z,4056
2017-07-23T18:10:13.195Z,3924
2017-07-23T18:11:35.104Z,3760
2017-07-23T18:12:57.281Z,3684
2017-07-23T18:14:20.098Z,3636
2017-07-23T18:15:42.234Z,3620
2017-07-23T18:17:04.405Z,3564
2017-07-23T18:18:26.909Z,3532
2017-07-23T18:19:49.654Z,3464
2017-07-23T18:21:11.955Z,3404
2017-07-23T18:22:33.835Z,3388